Vanleer, Tennessee
Current Conditions -  °F | °C
As of 12:52 PM on Friday 24 Oct 2014 (Local Time) from KCKV Reporting Station
Broken Clouds Broken Clouds  
Wind Chill: 65°   Ceiling: 4600
Heat Index: 65°   Visibility: 10mi
Dew Point: 43°   Wind: 6mph
Humidity: 45%   Direction: 310°NW
Pressure: 30.11"   Gusts: NA
Location:  36.24°N, 87.44°W
Report Text: KCKV 241752Z AUTO 31005KT 10SM BKN046 18/06 A3011 RMK AO2 SLP195 T01830061 10189 20039 58010
Loading
Personal Weather Stations






























Interactive Weather Map
Tropical Storm Tracking
New forecast layout! Learn more

10-Day Weather Forecast

Advertisements
Track Severe Weather on mobile